createdAt,value
2022-08-18T00:01:07.410Z,23.05
2022-08-18T00:03:56.581Z,23.03
2022-08-18T00:06:23.763Z,23.02
2022-08-18T00:08:56.254Z,23.01
2022-08-18T00:11:25.644Z,23.01
2022-08-18T00:13:53.541Z,23.00
2022-08-18T00:16:21.409Z,23.00
2022-08-18T00:18:49.399Z,22.99
2022-08-18T00:21:17.952Z,23.00
2022-08-18T00:23:46.055Z,23.00
2022-08-18T00:26:13.976Z,23.00
2022-08-18T00:28:43.255Z,22.99
2022-08-18T00:31:11.120Z,22.97
2022-08-18T00:33:39.142Z,22.95
2022-08-18T00:36:06.975Z,22.94
2022-08-18T00:38:34.826Z,22.93
2022-08-18T00:41:03.163Z,22.90
2022-08-18T00:43:40.840Z,22.87
2022-08-18T00:46:13.627Z,22.80
2022-08-18T00:48:41.649Z,22.77
2022-08-18T00:51:21.909Z,22.74
2022-08-18T00:53:55.384Z,22.72
2022-08-18T00:56:27.922Z,22.69
2022-08-18T00:59:00.632Z,22.66
2022-08-18T01:01:32.984Z,22.61
2022-08-18T01:07:09.604Z,22.52
2022-08-18T01:09:37.736Z,22.47
2022-08-18T01:12:43.809Z,22.42
2022-08-18T01:14:55.813Z,22.35
2022-08-18T01:17:43.761Z,22.31
2022-08-18T01:20:32.771Z,22.24
2022-08-18T01:23:10.988Z,22.19
2022-08-18T01:25:56.611Z,22.14
2022-08-18T01:28:24.534Z,22.10
2022-08-18T01:30:58.139Z,22.05
2022-08-18T01:33:30.176Z,21.98
2022-08-18T01:35:59.709Z,21.87
2022-08-18T01:38:29.010Z,21.76
2022-08-18T01:41:21.150Z,21.70
2022-08-18T01:43:46.334Z,21.70
2022-08-18T01:46:20.191Z,21.72
2022-08-18T01:48:49.433Z,21.77
2022-08-18T01:51:19.787Z,21.81
2022-08-18T01:53:49.779Z,21.86
2022-08-18T01:56:18.740Z,21.87
2022-08-18T01:58:50.570Z,21.89
2022-08-18T02:01:23.805Z,21.85
2022-08-18T02:04:31.105Z,21.78
2022-08-18T02:06:53.709Z,21.69
2022-08-18T02:09:23.789Z,21.70
2022-08-18T02:11:53.106Z,21.67
2022-08-18T02:14:26.960Z,21.57
2022-08-18T02:17:01.762Z,21.48
2022-08-18T02:19:34.326Z,21.34
2022-08-18T02:22:02.618Z,21.26
2022-08-18T02:24:31.855Z,21.24
2022-08-18T02:26:59.819Z,21.29
2022-08-18T02:29:27.679Z,21.35
2022-08-18T02:31:55.628Z,21.37
2022-08-18T02:34:23.644Z,21.41
2022-08-18T02:36:51.561Z,21.41
2022-08-18T02:39:19.568Z,21.42
2022-08-18T02:41:48.763Z,21.39
2022-08-18T02:44:16.567Z,21.36
2022-08-18T02:46:44.520Z,21.30
2022-08-18T02:49:12.802Z,21.28
2022-08-18T02:51:40.693Z,21.29
2022-08-18T02:54:11.447Z,21.32
2022-08-18T02:56:42.083Z,21.32
2022-08-18T02:59:13.961Z,21.32
2022-08-18T03:01:44.171Z,21.31
2022-08-18T03:04:15.404Z,21.34
2022-08-18T03:06:44.381Z,21.32
2022-08-18T03:09:15.267Z,21.27
2022-08-18T03:11:44.131Z,21.24
2022-08-18T03:14:14.578Z,21.26
2022-08-18T03:16:52.699Z,21.27
2022-08-18T03:19:23.736Z,21.28
2022-08-18T03:21:52.817Z,21.26
2022-08-18T03:24:22.699Z,21.29
2022-08-18T03:26:52.883Z,21.33
2022-08-18T03:29:22.453Z,21.38
2022-08-18T03:31:51.652Z,21.38
2022-08-18T03:34:21.883Z,21.42
2022-08-18T03:36:51.500Z,21.40
2022-08-18T03:39:22.903Z,21.38
2022-08-18T03:41:59.589Z,21.36
2022-08-18T03:44:32.557Z,21.37
2022-08-18T03:47:02.966Z,21.40
2022-08-18T03:49:31.579Z,21.43
2022-08-18T03:52:01.087Z,21.43
2022-08-18T03:54:29.477Z,21.46
2022-08-18T03:56:57.420Z,21.54
2022-08-18T03:59:27.473Z,21.57
2022-08-18T04:01:56.836Z,21.60
2022-08-18T04:04:27.344Z,21.62
2022-08-18T04:06:59.233Z,21.62
2022-08-18T04:09:29.703Z,21.59
2022-08-18T04:11:58.099Z,21.55
2022-08-18T04:14:30.074Z,21.56
2022-08-18T04:17:00.027Z,21.59
2022-08-18T04:19:28.350Z,21.62
2022-08-18T04:21:57.924Z,21.63
2022-08-18T04:24:28.150Z,21.63
2022-08-18T04:27:01.081Z,21.61
2022-08-18T04:29:29.507Z,21.59
2022-08-18T04:31:57.954Z,21.54
2022-08-18T04:34:27.487Z,21.55
2022-08-18T04:36:55.296Z,21.53
2022-08-18T04:39:26.869Z,21.55
2022-08-18T04:41:54.866Z,21.54
2022-08-18T04:44:23.045Z,21.55
2022-08-18T04:46:52.889Z,21.52
2022-08-18T04:49:24.010Z,21.50
2022-08-18T04:52:37.404Z,21.47
2022-08-18T04:55:01.548Z,21.45
2022-08-18T04:57:33.009Z,21.45
2022-08-18T05:00:03.486Z,21.46
2022-08-18T05:02:31.620Z,21.44
2022-08-18T05:05:01.316Z,21.43
2022-08-18T05:07:30.714Z,21.47
2022-08-18T05:09:58.662Z,21.50
2022-08-18T05:12:26.962Z,21.51
2022-08-18T05:14:57.773Z,21.54
2022-08-18T05:17:29.033Z,21.56
2022-08-18T05:19:59.020Z,21.59
2022-08-18T05:22:28.546Z,21.56
2022-08-18T05:25:00.525Z,21.56
2022-08-18T05:27:32.884Z,21.56
2022-08-18T05:30:00.863Z,21.54
2022-08-18T05:32:46.586Z,21.55
2022-08-18T05:35:21.394Z,21.56
2022-08-18T05:38:09.453Z,21.56
2022-08-18T05:40:39.426Z,21.59
2022-08-18T05:43:09.676Z,21.59
2022-08-18T05:45:37.660Z,21.60
2022-08-18T05:48:05.679Z,21.59
2022-08-18T05:50:37.559Z,21.57
2022-08-18T05:53:13.356Z,21.54
2022-08-18T05:56:19.929Z,21.51
2022-08-18T05:58:51.996Z,21.55
2022-08-18T06:01:23.698Z,21.59
2022-08-18T06:03:57.894Z,21.60
2022-08-18T06:06:30.322Z,21.63
2022-08-18T06:09:11.451Z,21.64
2022-08-18T06:11:40.963Z,21.67
2022-08-18T06:14:08.939Z,21.71
2022-08-18T06:16:50.459Z,21.70
2022-08-18T06:19:40.313Z,21.68
2022-08-18T06:22:18.719Z,21.68
2022-08-18T06:24:56.377Z,21.72
2022-08-18T06:27:41.051Z,21.68
2022-08-18T06:30:16.220Z,21.68
2022-08-18T06:32:57.844Z,21.71
2022-08-18T06:35:34.348Z,21.76
2022-08-18T06:38:30.392Z,21.76
2022-08-18T06:41:04.362Z,21.78
2022-08-18T06:43:35.423Z,21.77
2022-08-18T06:46:09.178Z,21.79
2022-08-18T06:48:43.767Z,21.82
2022-08-18T06:51:16.337Z,21.87
2022-08-18T06:53:59.792Z,21.88
2022-08-18T06:56:34.980Z,21.91
2022-08-18T06:59:21.286Z,21.84
2022-08-18T07:01:53.013Z,21.87
2022-08-18T07:04:42.801Z,21.84
2022-08-18T07:07:21.619Z,21.89
2022-08-18T07:09:52.955Z,21.93
2022-08-18T07:12:30.477Z,21.94
2022-08-18T07:15:04.429Z,21.99
2022-08-18T07:17:43.155Z,22.03
2022-08-18T07:20:25.864Z,21.99
2022-08-18T07:22:56.272Z,22.04
2022-08-18T07:25:28.751Z,22.04
2022-08-18T07:27:57.404Z,22.04
2022-08-18T07:30:33.973Z,22.03
2022-08-18T07:33:10.607Z,22.05
2022-08-18T07:35:44.033Z,22.11
2022-08-18T07:38:40.673Z,22.14
2022-08-18T07:41:10.019Z,22.16
2022-08-18T07:43:42.864Z,22.16
2022-08-18T07:46:17.146Z,22.15
2022-08-18T07:48:45.076Z,22.16
2022-08-18T07:51:25.001Z,22.16
2022-08-18T07:54:01.082Z,22.19
2022-08-18T07:56:44.098Z,22.18
2022-08-18T07:59:19.215Z,22.23
2022-08-18T08:01:56.158Z,22.29
2022-08-18T08:04:30.681Z,22.33
2022-08-18T08:10:07.001Z,22.40
2022-08-18T08:12:43.903Z,22.40
2022-08-18T08:15:27.096Z,22.36
2022-08-18T08:18:04.590Z,22.42
2022-08-18T08:20:37.887Z,22.47
2022-08-18T08:23:17.406Z,22.48
2022-08-18T08:25:56.923Z,22.52
2022-08-18T08:28:35.908Z,22.57
2022-08-18T08:31:35.541Z,22.59
2022-08-18T08:34:13.308Z,22.59
2022-08-18T08:36:44.743Z,22.62
2022-08-18T08:39:19.565Z,22.64
2022-08-18T08:41:52.423Z,22.69
2022-08-18T08:44:27.403Z,22.72
2022-08-18T08:47:03.587Z,22.73
2022-08-18T08:49:38.787Z,22.75
2022-08-18T08:52:18.897Z,22.77
2022-08-18T08:54:51.192Z,22.80
2022-08-18T08:57:20.025Z,22.84
2022-08-18T08:59:51.990Z,22.87
2022-08-18T09:02:47.488Z,22.87
2022-08-18T09:05:22.780Z,22.92
2022-08-18T09:08:09.726Z,22.91
2022-08-18T09:10:53.100Z,22.94
2022-08-18T09:13:49.117Z,22.98
2022-08-18T09:16:27.810Z,23.04
2022-08-18T09:19:14.395Z,23.08
2022-08-18T09:21:49.689Z,23.14
2022-08-18T09:24:27.982Z,23.22
2022-08-18T09:27:15.802Z,23.25
2022-08-18T09:29:52.397Z,23.38
2022-08-18T09:32:46.197Z,23.43
2022-08-18T09:35:33.062Z,23.53
2022-08-18T09:38:28.893Z,23.65
2022-08-18T09:41:17.647Z,23.74
2022-08-18T09:44:09.937Z,23.77
2022-08-18T09:49:51.293Z,23.92
2022-08-18T09:50:38.477Z,23.86
2022-08-18T09:52:50.222Z,23.97
2022-08-18T09:55:56.752Z,24.08
2022-08-18T09:58:54.400Z,24.24
2022-08-18T10:01:52.499Z,24.34
2022-08-18T10:04:32.282Z,24.50
2022-08-18T10:07:35.384Z,24.57
2022-08-18T10:11:01.402Z,24.71
2022-08-18T10:13:21.543Z,24.77
2022-08-18T10:16:10.261Z,24.91
2022-08-18T10:18:55.130Z,25.05
2022-08-18T10:21:31.154Z,25.11
2022-08-18T10:24:35.112Z,25.13
2022-08-18T10:27:03.828Z,25.17
2022-08-18T10:29:55.535Z,25.10
2022-08-18T10:32:54.156Z,25.20
2022-08-18T10:35:58.747Z,25.18
2022-08-18T10:38:40.032Z,25.28
2022-08-18T10:41:23.288Z,25.33
2022-08-18T10:43:57.824Z,25.41
2022-08-18T10:49:25.781Z,25.49
2022-08-18T10:52:27.933Z,25.46
2022-08-18T10:55:21.541Z,25.56
2022-08-18T10:58:12.309Z,25.64
2022-08-18T11:00:52.786Z,25.73
2022-08-18T11:03:51.635Z,25.76
2022-08-18T11:06:26.217Z,25.76
2022-08-18T11:08:57.521Z,25.66
2022-08-18T11:11:33.023Z,25.69
2022-08-18T11:14:23.532Z,25.71
2022-08-18T11:17:02.983Z,25.74
2022-08-18T11:19:42.082Z,25.75
2022-08-18T11:22:24.255Z,25.69
2022-08-18T11:25:00.878Z,25.71
2022-08-18T11:27:31.613Z,25.77
2022-08-18T11:30:02.060Z,25.93
2022-08-18T11:32:32.981Z,26.18
2022-08-18T11:35:08.343Z,26.42
2022-08-18T11:37:51.600Z,26.63
2022-08-18T11:43:29.511Z,26.79
2022-08-18T11:46:02.167Z,26.87
2022-08-18T11:48:46.514Z,26.89
2022-08-18T11:54:23.512Z,26.82
2022-08-18T11:56:53.075Z,26.89
2022-08-18T11:59:54.813Z,26.93
2022-08-18T12:02:26.992Z,27.05
2022-08-18T12:05:03.167Z,27.20
2022-08-18T12:07:36.792Z,27.40
2022-08-18T12:10:29.462Z,27.51
2022-08-18T12:13:00.746Z,27.67
2022-08-18T12:15:44.472Z,27.66
2022-08-18T12:21:05.783Z,27.63
2022-08-18T12:23:44.542Z,27.67
2022-08-18T12:26:38.101Z,27.81
2022-08-18T12:29:08.663Z,27.94
2022-08-18T12:31:47.488Z,28.13
2022-08-18T12:34:17.898Z,28.18
2022-08-18T12:36:54.058Z,28.28
2022-08-18T12:39:24.084Z,28.36
2022-08-18T12:41:52.377Z,28.35
2022-08-18T12:44:22.268Z,28.49
2022-08-18T12:46:50.944Z,28.82
2022-08-18T12:49:21.732Z,29.00
2022-08-18T12:51:50.708Z,29.16
2022-08-18T12:54:20.306Z,29.09
2022-08-18T12:56:52.842Z,29.12
2022-08-18T12:59:21.157Z,28.94
2022-08-18T13:01:58.826Z,28.76
2022-08-18T13:04:34.409Z,28.77
2022-08-18T13:07:05.742Z,28.81
2022-08-18T13:09:48.138Z,28.89
2022-08-18T13:12:25.653Z,28.88
2022-08-18T13:14:55.689Z,28.96
2022-08-18T13:17:32.639Z,29.14
2022-08-18T13:20:03.635Z,29.25
2022-08-18T13:22:33.347Z,29.29
2022-08-18T13:25:02.196Z,29.27
2022-08-18T13:27:35.724Z,29.18
2022-08-18T13:30:29.975Z,29.35
2022-08-18T13:32:59.278Z,29.59
2022-08-18T13:35:30.016Z,29.86
2022-08-18T13:38:14.256Z,29.98
2022-08-18T13:40:48.525Z,30.10
2022-08-18T13:43:21.740Z,30.09
2022-08-18T13:45:53.513Z,30.17
2022-08-18T13:48:25.680Z,30.19
2022-08-18T13:50:56.015Z,30.18
2022-08-18T13:53:26.421Z,30.13
2022-08-18T13:55:59.182Z,30.07
2022-08-18T13:58:30.068Z,30.25
2022-08-18T14:03:48.346Z,30.64
2022-08-18T14:06:22.186Z,30.72
2022-08-18T14:08:52.186Z,30.77
2022-08-18T14:11:21.475Z,30.87
2022-08-18T14:13:50.921Z,30.89
2022-08-18T14:16:19.823Z,30.85
2022-08-18T14:19:09.846Z,30.84
2022-08-18T14:22:02.119Z,30.85
2022-08-18T14:24:48.936Z,31.05
2022-08-18T14:27:18.033Z,31.19
2022-08-18T14:29:48.900Z,31.16
2022-08-18T14:32:29.243Z,31.30
2022-08-18T14:35:00.791Z,31.45
2022-08-18T14:37:30.435Z,31.42
2022-08-18T14:40:01.985Z,31.52
2022-08-18T14:42:41.354Z,31.34
2022-08-18T14:45:26.581Z,31.18
2022-08-18T14:48:07.316Z,31.05
2022-08-18T14:50:40.170Z,30.92
2022-08-18T14:53:17.060Z,30.84
2022-08-18T14:55:47.167Z,30.75
2022-08-18T14:58:18.872Z,30.76
2022-08-18T15:00:54.006Z,30.70
2022-08-18T15:03:30.977Z,30.70
2022-08-18T15:06:04.392Z,30.73
2022-08-18T15:08:35.470Z,30.68
2022-08-18T15:11:11.464Z,30.66
2022-08-18T15:13:41.800Z,30.67
2022-08-18T15:16:13.591Z,30.67
2022-08-18T15:18:41.723Z,30.57
2022-08-18T15:21:35.281Z,30.54
2022-08-18T15:24:25.368Z,30.55
2022-08-18T15:26:57.734Z,30.53
2022-08-18T15:29:29.186Z,30.50
2022-08-18T15:32:05.831Z,30.51
2022-08-18T15:34:46.236Z,30.50
2022-08-18T15:37:15.913Z,30.47
2022-08-18T15:39:47.633Z,30.42
2022-08-18T15:42:23.741Z,30.34
2022-08-18T15:44:53.515Z,30.33
2022-08-18T15:47:25.048Z,30.27
2022-08-18T15:49:54.789Z,30.27
2022-08-18T15:52:26.036Z,30.40
2022-08-18T15:54:56.911Z,30.48
2022-08-18T15:57:39.718Z,30.47
2022-08-18T16:00:12.342Z,30.41
2022-08-18T16:02:48.355Z,30.41
2022-08-18T16:05:17.298Z,30.41
2022-08-18T16:07:46.055Z,30.42
2022-08-18T16:10:14.690Z,30.46
2022-08-18T16:12:46.132Z,30.47
2022-08-18T16:15:15.576Z,30.53
2022-08-18T16:17:49.161Z,30.65
2022-08-18T16:20:18.594Z,30.80
2022-08-18T16:22:46.846Z,30.87
2022-08-18T16:25:16.565Z,30.96
2022-08-18T16:27:45.632Z,30.92
2022-08-18T16:30:16.778Z,30.93
2022-08-18T16:32:45.107Z,30.97
2022-08-18T16:35:15.450Z,31.06
2022-08-18T16:37:44.364Z,31.06
2022-08-18T16:40:13.362Z,31.01
2022-08-18T16:42:41.549Z,30.93
2022-08-18T16:45:10.190Z,30.87
2022-08-18T16:47:41.150Z,30.91
2022-08-18T16:50:12.077Z,30.96
2022-08-18T16:52:42.092Z,30.99
2022-08-18T16:55:13.305Z,31.04
2022-08-18T16:58:00.184Z,31.08
2022-08-18T17:00:46.694Z,31.07
2022-08-18T17:03:40.570Z,31.01
2022-08-18T17:06:12.171Z,30.92
2022-08-18T17:08:43.934Z,30.90
2022-08-18T17:11:13.917Z,30.83
2022-08-18T17:13:43.101Z,30.72
2022-08-18T17:16:11.958Z,30.53
2022-08-18T17:18:42.780Z,30.47
2022-08-18T17:21:13.262Z,30.27
2022-08-18T17:23:51.658Z,30.02
2022-08-18T17:26:29.852Z,29.99
2022-08-18T17:29:06.853Z,29.91
2022-08-18T17:31:36.119Z,29.85
2022-08-18T17:34:08.341Z,29.83
2022-08-18T17:36:52.935Z,29.86
2022-08-18T17:39:29.662Z,29.88
2022-08-18T17:42:14.860Z,29.85
2022-08-18T17:44:52.102Z,29.77
2022-08-18T17:47:23.802Z,29.72
2022-08-18T17:50:26.955Z,29.59
2022-08-18T17:53:00.956Z,29.53
2022-08-18T17:55:38.034Z,29.49
2022-08-18T17:58:14.567Z,29.38
2022-08-18T18:00:42.743Z,29.32
2022-08-18T18:03:13.142Z,29.28
2022-08-18T18:05:44.748Z,29.25
2022-08-18T18:08:12.662Z,29.18
2022-08-18T18:11:03.843Z,29.13
2022-08-18T18:13:32.945Z,28.99
2022-08-18T18:16:02.641Z,28.92
2022-08-18T18:18:36.946Z,28.86
2022-08-18T18:21:09.038Z,28.81
2022-08-18T18:23:41.431Z,28.79
2022-08-18T18:26:28.431Z,28.64
2022-08-18T18:29:30.669Z,28.58
2022-08-18T18:32:04.244Z,28.58
2022-08-18T18:34:39.163Z,28.55
2022-08-18T18:37:25.915Z,28.39
2022-08-18T18:40:00.517Z,28.35
2022-08-18T18:42:33.755Z,28.30
2022-08-18T18:45:04.330Z,28.27
2022-08-18T18:47:47.375Z,28.19
2022-08-18T18:50:25.945Z,28.10
2022-08-18T18:53:04.118Z,27.99
2022-08-18T18:55:39.992Z,27.87
2022-08-18T18:58:22.732Z,27.81
2022-08-18T19:00:59.129Z,27.79
2022-08-18T19:03:35.811Z,27.70
2022-08-18T19:06:20.244Z,27.63
2022-08-18T19:08:57.953Z,27.55
2022-08-18T19:11:34.380Z,27.50
2022-08-18T19:14:09.146Z,27.47
2022-08-18T19:16:42.220Z,27.45
2022-08-18T19:19:37.707Z,27.43
2022-08-18T19:22:11.491Z,27.37
2022-08-18T19:24:46.723Z,27.33
2022-08-18T19:27:23.307Z,27.28
2022-08-18T19:29:57.945Z,27.18
2022-08-18T19:32:32.597Z,27.13
2022-08-18T19:35:04.388Z,27.08
2022-08-18T19:38:12.014Z,27.00
2022-08-18T19:40:47.289Z,26.95
2022-08-18T19:43:27.620Z,26.88
2022-08-18T19:46:05.538Z,26.76
2022-08-18T19:48:42.494Z,26.67
2022-08-18T19:51:16.154Z,26.57
2022-08-18T19:54:10.278Z,26.44
2022-08-18T19:56:56.488Z,26.40
2022-08-18T19:59:42.604Z,26.39
2022-08-18T20:02:26.477Z,26.33
2022-08-18T20:05:10.002Z,26.28
2022-08-18T20:07:59.722Z,26.22
2022-08-18T20:10:40.378Z,26.21
2022-08-18T20:13:32.881Z,26.16
2022-08-18T20:16:14.636Z,26.14
2022-08-18T20:18:45.780Z,26.17
2022-08-18T20:21:39.863Z,26.12
2022-08-18T20:24:18.356Z,26.12
2022-08-18T20:26:49.182Z,26.11
2022-08-18T20:29:19.575Z,26.08
2022-08-18T20:31:55.165Z,26.04
2022-08-18T20:34:26.527Z,26.02
2022-08-18T20:36:57.713Z,25.97
2022-08-18T20:39:35.203Z,25.91
2022-08-18T20:42:04.641Z,25.92
2022-08-18T20:44:49.536Z,25.89
2022-08-18T20:47:43.737Z,25.85
2022-08-18T20:50:58.664Z,25.79
2022-08-18T20:53:50.159Z,25.75
2022-08-18T20:56:32.416Z,25.75
2022-08-18T20:59:10.085Z,25.74
2022-08-18T21:01:39.017Z,25.72
2022-08-18T21:04:07.403Z,25.71
2022-08-18T21:06:39.590Z,25.68
2022-08-18T21:09:07.440Z,25.64
2022-08-18T21:11:41.233Z,25.62
2022-08-18T21:14:09.735Z,25.59
2022-08-18T21:16:40.597Z,25.55
2022-08-18T21:19:13.911Z,25.53
2022-08-18T21:21:49.989Z,25.49
2022-08-18T21:24:32.247Z,25.46
2022-08-18T21:27:05.611Z,25.44
2022-08-18T21:29:38.252Z,25.41
2022-08-18T21:32:19.406Z,25.38
2022-08-18T21:34:47.301Z,25.36
2022-08-18T21:37:18.486Z,25.33
2022-08-18T21:39:51.966Z,25.29
2022-08-18T21:42:24.544Z,25.27
2022-08-18T21:44:55.006Z,25.22
2022-08-18T21:47:26.512Z,25.18
2022-08-18T21:50:08.324Z,25.14
2022-08-18T21:52:40.402Z,25.13
2022-08-18T21:55:18.626Z,25.09
2022-08-18T21:58:00.911Z,25.06
2022-08-18T22:00:30.771Z,25.04
2022-08-18T22:03:20.657Z,24.98
2022-08-18T22:05:59.973Z,24.96
2022-08-18T22:08:32.876Z,24.94
2022-08-18T22:12:01.912Z,24.91
2022-08-18T22:14:53.488Z,24.86
2022-08-18T22:17:31.773Z,24.82
2022-08-18T22:20:39.023Z,24.76
2022-08-18T22:23:35.970Z,24.74
2022-08-18T22:26:12.366Z,24.70
2022-08-18T22:28:49.612Z,24.68
2022-08-18T22:31:21.069Z,24.64
2022-08-18T22:33:50.142Z,24.61
2022-08-18T22:36:21.723Z,24.58
2022-08-18T22:38:50.058Z,24.55
2022-08-18T22:41:19.395Z,24.52
2022-08-18T22:43:47.802Z,24.49
2022-08-18T22:46:24.283Z,24.45
2022-08-18T22:48:52.906Z,24.39
2022-08-18T22:51:23.325Z,24.39
2022-08-18T22:53:52.018Z,24.35
2022-08-18T22:56:26.458Z,24.31
2022-08-18T22:59:05.919Z,24.28
2022-08-18T23:01:46.200Z,24.25
2022-08-18T23:04:15.827Z,24.22
2022-08-18T23:06:48.552Z,24.19
2022-08-18T23:09:16.372Z,24.16
2022-08-18T23:11:46.686Z,24.13
2022-08-18T23:14:15.551Z,24.08
2022-08-18T23:16:45.492Z,24.07
2022-08-18T23:19:15.108Z,24.04
2022-08-18T23:21:43.463Z,24.01
2022-08-18T23:24:13.804Z,23.98
2022-08-18T23:26:42.677Z,23.97
2022-08-18T23:29:12.554Z,23.94
2022-08-18T23:31:42.013Z,23.92
2022-08-18T23:34:11.571Z,23.88
2022-08-18T23:36:45.120Z,23.85
2022-08-18T23:39:13.813Z,23.83
2022-08-18T23:41:41.800Z,23.79
2022-08-18T23:44:11.506Z,23.78
2022-08-18T23:46:39.768Z,23.76
2022-08-18T23:49:10.674Z,23.75
2022-08-18T23:51:44.220Z,23.71
2022-08-18T23:54:14.031Z,23.67
2022-08-18T23:56:42.038Z,23.66
2022-08-18T23:59:12.407Z,23.63
